sensor_id;sensor_type;location;lat;lon;timestamp;P1;durP1;ratioP1;P2;durP2;ratioP2
53666;SDS011;39568;51.026;5.468;2022-12-05T00:00:49;97.80;;;34.17;;
53666;SDS011;39568;51.026;5.468;2022-12-05T00:03:16;102.47;;;37.58;;
53666;SDS011;39568;51.026;5.468;2022-12-05T00:05:42;97.57;;;35.90;;
53666;SDS011;39568;51.026;5.468;2022-12-05T00:08:09;108.10;;;37.40;;
53666;SDS011;39568;51.026;5.468;2022-12-05T00:10:36;106.80;;;39.30;;
53666;SDS011;39568;51.026;5.468;2022-12-05T00:13:03;106.60;;;40.83;;
53666;SDS011;39568;51.026;5.468;2022-12-05T00:15:31;97.68;;;33.38;;
53666;SDS011;39568;51.026;5.468;2022-12-05T00:18:02;110.15;;;38.90;;
53666;SDS011;39568;51.026;5.468;2022-12-05T00:20:28;89.95;;;35.28;;
53666;SDS011;39568;51.026;5.468;2022-12-05T00:22:55;101.68;;;35.72;;
53666;SDS011;39568;51.026;5.468;2022-12-05T00:25:22;111.85;;;34.72;;
53666;SDS011;39568;51.026;5.468;2022-12-05T00:27:49;100.40;;;35.35;;
53666;SDS011;39568;51.026;5.468;2022-12-05T00:30:15;98.45;;;35.60;;
53666;SDS011;39568;51.026;5.468;2022-12-05T00:32:43;97.03;;;36.30;;
53666;SDS011;39568;51.026;5.468;2022-12-05T00:35:10;108.93;;;37.63;;
53666;SDS011;39568;51.026;5.468;2022-12-05T00:37:37;105.00;;;35.88;;
53666;SDS011;39568;51.026;5.468;2022-12-05T00:40:04;105.18;;;38.05;;
53666;SDS011;39568;51.026;5.468;2022-12-05T00:42:31;108.00;;;38.60;;
53666;SDS011;39568;51.026;5.468;2022-12-05T00:44:58;105.60;;;35.80;;
53666;SDS011;39568;51.026;5.468;2022-12-05T00:47:24;106.72;;;36.63;;
53666;SDS011;39568;51.026;5.468;2022-12-05T00:49:52;100.38;;;34.58;;
53666;SDS011;39568;51.026;5.468;2022-12-05T00:52:19;113.93;;;38.30;;
53666;SDS011;39568;51.026;5.468;2022-12-05T00:54:46;103.53;;;37.45;;
53666;SDS011;39568;51.026;5.468;2022-12-05T00:57:12;93.72;;;37.25;;
53666;SDS011;39568;51.026;5.468;2022-12-05T00:59:39;86.93;;;34.47;;
53666;SDS011;39568;51.026;5.468;2022-12-05T01:02:06;109.88;;;35.30;;
53666;SDS011;39568;51.026;5.468;2022-12-05T01:04:32;107.97;;;36.65;;
53666;SDS011;39568;51.026;5.468;2022-12-05T01:07:00;92.00;;;36.47;;
53666;SDS011;39568;51.026;5.468;2022-12-05T01:09:27;91.65;;;34.50;;
53666;SDS011;39568;51.026;5.468;2022-12-05T01:11:53;113.03;;;38.58;;
53666;SDS011;39568;51.026;5.468;2022-12-05T01:14:21;100.75;;;34.28;;
53666;SDS011;39568;51.026;5.468;2022-12-05T01:16:50;93.10;;;35.53;;
53666;SDS011;39568;51.026;5.468;2022-12-05T01:19:19;99.65;;;36.45;;
53666;SDS011;39568;51.026;5.468;2022-12-05T01:21:47;85.07;;;34.83;;
53666;SDS011;39568;51.026;5.468;2022-12-05T01:24:15;89.85;;;33.58;;
53666;SDS011;39568;51.026;5.468;2022-12-05T01:26:43;90.85;;;35.95;;
53666;SDS011;39568;51.026;5.468;2022-12-05T01:29:11;90.28;;;30.65;;
53666;SDS011;39568;51.026;5.468;2022-12-05T01:31:39;84.28;;;33.53;;
53666;SDS011;39568;51.026;5.468;2022-12-05T01:34:07;103.90;;;33.97;;
53666;SDS011;39568;51.026;5.468;2022-12-05T01:36:36;82.93;;;33.63;;
53666;SDS011;39568;51.026;5.468;2022-12-05T01:39:03;77.32;;;31.17;;
53666;SDS011;39568;51.026;5.468;2022-12-05T01:41:33;97.85;;;33.00;;
53666;SDS011;39568;51.026;5.468;2022-12-05T01:44:03;86.47;;;31.98;;
53666;SDS011;39568;51.026;5.468;2022-12-05T01:46:32;79.47;;;30.98;;
53666;SDS011;39568;51.026;5.468;2022-12-05T01:49:03;84.88;;;32.00;;
53666;SDS011;39568;51.026;5.468;2022-12-05T01:51:32;80.95;;;30.95;;
53666;SDS011;39568;51.026;5.468;2022-12-05T01:54:01;80.30;;;32.58;;
53666;SDS011;39568;51.026;5.468;2022-12-05T01:56:30;94.43;;;35.67;;
53666;SDS011;39568;51.026;5.468;2022-12-05T01:58:58;89.45;;;32.17;;
53666;SDS011;39568;51.026;5.468;2022-12-05T02:01:26;93.00;;;34.35;;
53666;SDS011;39568;51.026;5.468;2022-12-05T02:03:53;75.95;;;31.02;;
53666;SDS011;39568;51.026;5.468;2022-12-05T02:06:23;97.43;;;35.28;;
53666;SDS011;39568;51.026;5.468;2022-12-05T02:08:51;81.65;;;32.80;;
53666;SDS011;39568;51.026;5.468;2022-12-05T02:11:18;86.57;;;33.45;;
53666;SDS011;39568;51.026;5.468;2022-12-05T02:13:54;89.15;;;31.77;;
53666;SDS011;39568;51.026;5.468;2022-12-05T02:16:35;95.60;;;34.35;;
53666;SDS011;39568;51.026;5.468;2022-12-05T02:19:16;75.82;;;29.55;;
53666;SDS011;39568;51.026;5.468;2022-12-05T02:22:22;87.97;;;32.40;;
53666;SDS011;39568;51.026;5.468;2022-12-05T02:25:09;89.85;;;33.90;;
53666;SDS011;39568;51.026;5.468;2022-12-05T02:27:56;76.72;;;31.35;;
53666;SDS011;39568;51.026;5.468;2022-12-05T02:30:48;110.45;;;36.42;;
53666;SDS011;39568;51.026;5.468;2022-12-05T02:33:22;86.60;;;32.90;;
53666;SDS011;39568;51.026;5.468;2022-12-05T02:35:58;87.20;;;31.35;;
53666;SDS011;39568;51.026;5.468;2022-12-05T02:38:30;83.75;;;31.00;;
53666;SDS011;39568;51.026;5.468;2022-12-05T02:41:03;94.38;;;33.55;;
53666;SDS011;39568;51.026;5.468;2022-12-05T02:43:38;78.57;;;34.17;;
53666;SDS011;39568;51.026;5.468;2022-12-05T02:46:11;85.80;;;33.72;;
53666;SDS011;39568;51.026;5.468;2022-12-05T02:48:42;89.78;;;33.72;;
53666;SDS011;39568;51.026;5.468;2022-12-05T02:51:12;94.63;;;32.10;;
53666;SDS011;39568;51.026;5.468;2022-12-05T02:53:42;93.18;;;32.88;;
53666;SDS011;39568;51.026;5.468;2022-12-05T02:56:10;106.18;;;34.35;;
53666;SDS011;39568;51.026;5.468;2022-12-05T02:58:38;113.97;;;38.97;;
53666;SDS011;39568;51.026;5.468;2022-12-05T03:01:11;90.10;;;33.45;;
53666;SDS011;39568;51.026;5.468;2022-12-05T03:03:37;103.88;;;35.45;;
53666;SDS011;39568;51.026;5.468;2022-12-05T03:06:05;109.00;;;37.10;;
53666;SDS011;39568;51.026;5.468;2022-12-05T03:08:38;105.40;;;36.88;;
53666;SDS011;39568;51.026;5.468;2022-12-05T03:11:08;112.13;;;34.33;;
53666;SDS011;39568;51.026;5.468;2022-12-05T03:13:36;88.82;;;32.50;;
53666;SDS011;39568;51.026;5.468;2022-12-05T03:16:06;101.70;;;36.60;;
53666;SDS011;39568;51.026;5.468;2022-12-05T03:18:39;101.57;;;38.00;;
53666;SDS011;39568;51.026;5.468;2022-12-05T03:21:13;110.30;;;34.17;;
53666;SDS011;39568;51.026;5.468;2022-12-05T03:23:46;113.90;;;35.45;;
53666;SDS011;39568;51.026;5.468;2022-12-05T03:26:17;104.22;;;36.88;;
53666;SDS011;39568;51.026;5.468;2022-12-05T03:28:56;110.10;;;37.65;;
53666;SDS011;39568;51.026;5.468;2022-12-05T03:31:32;106.32;;;37.25;;
53666;SDS011;39568;51.026;5.468;2022-12-05T03:34:06;102.38;;;36.83;;
53666;SDS011;39568;51.026;5.468;2022-12-05T03:36:38;100.75;;;36.33;;
53666;SDS011;39568;51.026;5.468;2022-12-05T03:39:09;85.18;;;35.72;;
53666;SDS011;39568;51.026;5.468;2022-12-05T03:41:41;122.38;;;37.58;;
53666;SDS011;39568;51.026;5.468;2022-12-05T03:44:15;99.38;;;33.45;;
53666;SDS011;39568;51.026;5.468;2022-12-05T03:46:47;99.30;;;32.90;;
53666;SDS011;39568;51.026;5.468;2022-12-05T03:49:21;108.20;;;38.10;;
53666;SDS011;39568;51.026;5.468;2022-12-05T03:51:56;100.00;;;37.35;;
53666;SDS011;39568;51.026;5.468;2022-12-05T03:54:28;110.85;;;35.72;;
53666;SDS011;39568;51.026;5.468;2022-12-05T03:57:01;95.30;;;34.13;;
53666;SDS011;39568;51.026;5.468;2022-12-05T03:59:34;96.85;;;35.40;;
53666;SDS011;39568;51.026;5.468;2022-12-05T04:02:06;95.78;;;37.58;;
53666;SDS011;39568;51.026;5.468;2022-12-05T04:04:39;92.07;;;35.40;;
53666;SDS011;39568;51.026;5.468;2022-12-05T04:07:12;98.13;;;37.15;;
53666;SDS011;39568;51.026;5.468;2022-12-05T04:09:42;91.00;;;36.22;;
53666;SDS011;39568;51.026;5.468;2022-12-05T04:12:13;107.75;;;37.58;;
53666;SDS011;39568;51.026;5.468;2022-12-05T04:14:42;99.40;;;35.93;;
53666;SDS011;39568;51.026;5.468;2022-12-05T04:17:15;102.03;;;37.55;;
53666;SDS011;39568;51.026;5.468;2022-12-05T04:19:46;86.85;;;34.10;;
53666;SDS011;39568;51.026;5.468;2022-12-05T04:22:35;123.45;;;39.13;;
53666;SDS011;39568;51.026;5.468;2022-12-05T04:25:03;98.28;;;35.35;;
53666;SDS011;39568;51.026;5.468;2022-12-05T04:27:51;95.35;;;34.53;;
53666;SDS011;39568;51.026;5.468;2022-12-05T04:30:25;104.78;;;36.47;;
53666;SDS011;39568;51.026;5.468;2022-12-05T04:32:57;105.35;;;37.95;;
53666;SDS011;39568;51.026;5.468;2022-12-05T04:35:31;107.10;;;35.17;;
53666;SDS011;39568;51.026;5.468;2022-12-05T04:38:02;118.28;;;35.05;;
53666;SDS011;39568;51.026;5.468;2022-12-05T04:40:33;114.00;;;36.05;;
53666;SDS011;39568;51.026;5.468;2022-12-05T04:43:04;100.68;;;37.15;;
53666;SDS011;39568;51.026;5.468;2022-12-05T04:45:32;118.68;;;36.78;;
53666;SDS011;39568;51.026;5.468;2022-12-05T04:48:00;112.38;;;37.92;;
53666;SDS011;39568;51.026;5.468;2022-12-05T04:50:33;115.57;;;37.95;;
53666;SDS011;39568;51.026;5.468;2022-12-05T04:53:03;120.68;;;37.47;;
53666;SDS011;39568;51.026;5.468;2022-12-05T04:55:32;115.82;;;36.00;;
53666;SDS011;39568;51.026;5.468;2022-12-05T04:58:03;114.38;;;37.45;;
53666;SDS011;39568;51.026;5.468;2022-12-05T05:00:34;103.18;;;36.65;;
53666;SDS011;39568;51.026;5.468;2022-12-05T05:03:04;112.65;;;36.50;;
53666;SDS011;39568;51.026;5.468;2022-12-05T05:05:38;106.40;;;38.90;;
53666;SDS011;39568;51.026;5.468;2022-12-05T05:08:14;112.05;;;36.50;;
53666;SDS011;39568;51.026;5.468;2022-12-05T05:10:44;110.07;;;36.42;;
53666;SDS011;39568;51.026;5.468;2022-12-05T05:13:17;104.57;;;36.35;;
53666;SDS011;39568;51.026;5.468;2022-12-05T05:15:43;108.28;;;36.28;;
53666;SDS011;39568;51.026;5.468;2022-12-05T05:18:10;110.53;;;37.03;;
53666;SDS011;39568;51.026;5.468;2022-12-05T05:20:38;99.90;;;37.10;;
53666;SDS011;39568;51.026;5.468;2022-12-05T05:23:05;109.13;;;37.65;;
53666;SDS011;39568;51.026;5.468;2022-12-05T05:25:31;116.70;;;39.67;;
53666;SDS011;39568;51.026;5.468;2022-12-05T05:27:58;121.60;;;36.28;;
53666;SDS011;39568;51.026;5.468;2022-12-05T05:30:25;112.18;;;36.03;;
53666;SDS011;39568;51.026;5.468;2022-12-05T05:32:51;102.90;;;36.83;;
53666;SDS011;39568;51.026;5.468;2022-12-05T05:35:18;121.03;;;41.88;;
53666;SDS011;39568;51.026;5.468;2022-12-05T05:37:47;115.15;;;38.80;;
53666;SDS011;39568;51.026;5.468;2022-12-05T05:40:13;129.95;;;38.38;;
53666;SDS011;39568;51.026;5.468;2022-12-05T05:42:41;124.20;;;40.25;;
53666;SDS011;39568;51.026;5.468;2022-12-05T05:45:09;122.22;;;38.00;;
53666;SDS011;39568;51.026;5.468;2022-12-05T05:47:36;114.30;;;39.75;;
53666;SDS011;39568;51.026;5.468;2022-12-05T05:50:03;104.57;;;39.70;;
53666;SDS011;39568;51.026;5.468;2022-12-05T05:52:31;117.03;;;37.90;;
53666;SDS011;39568;51.026;5.468;2022-12-05T05:55:00;107.28;;;38.28;;
53666;SDS011;39568;51.026;5.468;2022-12-05T05:57:26;111.68;;;37.90;;
53666;SDS011;39568;51.026;5.468;2022-12-05T05:59:53;116.05;;;40.20;;
53666;SDS011;39568;51.026;5.468;2022-12-05T06:02:20;111.95;;;39.00;;
53666;SDS011;39568;51.026;5.468;2022-12-05T06:04:47;120.25;;;40.60;;
53666;SDS011;39568;51.026;5.468;2022-12-05T06:07:13;111.93;;;37.28;;
53666;SDS011;39568;51.026;5.468;2022-12-05T06:09:40;108.65;;;40.25;;
53666;SDS011;39568;51.026;5.468;2022-12-05T06:12:08;116.57;;;37.47;;
53666;SDS011;39568;51.026;5.468;2022-12-05T06:14:35;101.97;;;35.92;;
53666;SDS011;39568;51.026;5.468;2022-12-05T06:17:02;97.35;;;36.25;;
53666;SDS011;39568;51.026;5.468;2022-12-05T06:19:29;113.60;;;39.60;;
53666;SDS011;39568;51.026;5.468;2022-12-05T06:21:55;87.72;;;33.92;;
53666;SDS011;39568;51.026;5.468;2022-12-05T06:24:22;108.05;;;36.85;;
53666;SDS011;39568;51.026;5.468;2022-12-05T06:26:49;88.18;;;34.35;;
53666;SDS011;39568;51.026;5.468;2022-12-05T06:29:16;95.55;;;35.78;;
53666;SDS011;39568;51.026;5.468;2022-12-05T06:31:43;109.00;;;40.70;;
53666;SDS011;39568;51.026;5.468;2022-12-05T06:34:10;103.47;;;36.95;;
53666;SDS011;39568;51.026;5.468;2022-12-05T06:36:36;93.88;;;34.78;;
53666;SDS011;39568;51.026;5.468;2022-12-05T06:39:03;103.30;;;34.95;;
53666;SDS011;39568;51.026;5.468;2022-12-05T06:41:30;100.13;;;36.85;;
53666;SDS011;39568;51.026;5.468;2022-12-05T06:43:57;91.85;;;35.78;;
53666;SDS011;39568;51.026;5.468;2022-12-05T06:46:25;112.13;;;40.75;;
53666;SDS011;39568;51.026;5.468;2022-12-05T06:48:52;111.07;;;45.53;;
53666;SDS011;39568;51.026;5.468;2022-12-05T06:51:19;96.32;;;36.95;;
53666;SDS011;39568;51.026;5.468;2022-12-05T06:53:46;121.18;;;44.53;;
53666;SDS011;39568;51.026;5.468;2022-12-05T06:56:13;108.68;;;40.58;;
53666;SDS011;39568;51.026;5.468;2022-12-05T06:58:42;123.30;;;47.88;;
53666;SDS011;39568;51.026;5.468;2022-12-05T07:01:10;101.30;;;40.28;;
53666;SDS011;39568;51.026;5.468;2022-12-05T07:03:56;99.40;;;34.90;;
53666;SDS011;39568;51.026;5.468;2022-12-05T07:06:24;100.38;;;35.35;;
53666;SDS011;39568;51.026;5.468;2022-12-05T07:08:51;108.38;;;35.65;;
53666;SDS011;39568;51.026;5.468;2022-12-05T07:11:18;90.13;;;33.15;;
53666;SDS011;39568;51.026;5.468;2022-12-05T07:13:45;102.65;;;36.83;;
53666;SDS011;39568;51.026;5.468;2022-12-05T07:16:12;89.85;;;34.30;;
53666;SDS011;39568;51.026;5.468;2022-12-05T07:18:38;95.45;;;34.47;;
53666;SDS011;39568;51.026;5.468;2022-12-05T07:21:08;101.60;;;34.08;;
53666;SDS011;39568;51.026;5.468;2022-12-05T07:23:37;87.20;;;33.60;;
53666;SDS011;39568;51.026;5.468;2022-12-05T07:26:04;103.15;;;34.58;;
53666;SDS011;39568;51.026;5.468;2022-12-05T07:28:31;90.45;;;32.70;;
53666;SDS011;39568;51.026;5.468;2022-12-05T07:30:58;85.78;;;33.10;;
53666;SDS011;39568;51.026;5.468;2022-12-05T07:33:26;101.88;;;35.55;;
53666;SDS011;39568;51.026;5.468;2022-12-05T07:35:57;88.60;;;33.00;;
53666;SDS011;39568;51.026;5.468;2022-12-05T07:38:26;91.03;;;34.85;;
53666;SDS011;39568;51.026;5.468;2022-12-05T07:40:53;92.68;;;35.13;;
53666;SDS011;39568;51.026;5.468;2022-12-05T07:43:19;95.15;;;34.45;;
53666;SDS011;39568;51.026;5.468;2022-12-05T07:45:46;84.80;;;34.15;;
53666;SDS011;39568;51.026;5.468;2022-12-05T07:48:12;81.43;;;33.80;;
53666;SDS011;39568;51.026;5.468;2022-12-05T07:50:39;97.05;;;35.42;;
53666;SDS011;39568;51.026;5.468;2022-12-05T07:53:06;109.03;;;35.40;;
53666;SDS011;39568;51.026;5.468;2022-12-05T07:55:34;93.97;;;36.05;;
53666;SDS011;39568;51.026;5.468;2022-12-05T07:58:02;106.63;;;39.80;;
53666;SDS011;39568;51.026;5.468;2022-12-05T08:00:29;92.20;;;36.38;;
53666;SDS011;39568;51.026;5.468;2022-12-05T08:02:56;83.93;;;36.88;;
53666;SDS011;39568;51.026;5.468;2022-12-05T08:05:22;97.40;;;39.08;;
53666;SDS011;39568;51.026;5.468;2022-12-05T08:07:49;104.03;;;37.03;;
53666;SDS011;39568;51.026;5.468;2022-12-05T08:10:15;91.00;;;37.50;;
53666;SDS011;39568;51.026;5.468;2022-12-05T08:12:43;98.53;;;36.35;;
53666;SDS011;39568;51.026;5.468;2022-12-05T08:15:10;103.82;;;39.08;;
53666;SDS011;39568;51.026;5.468;2022-12-05T08:17:37;91.13;;;38.50;;
53666;SDS011;39568;51.026;5.468;2022-12-05T08:20:04;110.00;;;41.35;;
53666;SDS011;39568;51.026;5.468;2022-12-05T08:22:31;112.72;;;42.15;;
53666;SDS011;39568;51.026;5.468;2022-12-05T08:24:58;94.38;;;39.45;;
53666;SDS011;39568;51.026;5.468;2022-12-05T08:27:25;97.47;;;39.75;;
53666;SDS011;39568;51.026;5.468;2022-12-05T08:29:53;88.85;;;35.67;;
53666;SDS011;39568;51.026;5.468;2022-12-05T08:32:20;94.22;;;35.63;;
53666;SDS011;39568;51.026;5.468;2022-12-05T08:34:47;92.22;;;36.00;;
53666;SDS011;39568;51.026;5.468;2022-12-05T08:37:13;95.65;;;39.25;;
53666;SDS011;39568;51.026;5.468;2022-12-05T08:39:40;101.72;;;38.85;;
53666;SDS011;39568;51.026;5.468;2022-12-05T08:42:06;100.18;;;41.60;;
53666;SDS011;39568;51.026;5.468;2022-12-05T08:44:33;101.32;;;38.67;;
53666;SDS011;39568;51.026;5.468;2022-12-05T08:47:01;92.43;;;34.60;;
53666;SDS011;39568;51.026;5.468;2022-12-05T08:49:28;83.45;;;35.83;;
53666;SDS011;39568;51.026;5.468;2022-12-05T08:51:54;80.03;;;36.30;;
53666;SDS011;39568;51.026;5.468;2022-12-05T08:54:21;80.53;;;34.08;;
53666;SDS011;39568;51.026;5.468;2022-12-05T08:56:49;78.97;;;34.92;;
53666;SDS011;39568;51.026;5.468;2022-12-05T08:59:16;80.25;;;34.33;;
53666;SDS011;39568;51.026;5.468;2022-12-05T09:01:47;93.78;;;36.97;;
53666;SDS011;39568;51.026;5.468;2022-12-05T09:04:16;80.55;;;35.90;;
53666;SDS011;39568;51.026;5.468;2022-12-05T09:06:42;98.75;;;39.08;;
53666;SDS011;39568;51.026;5.468;2022-12-05T09:09:10;84.93;;;34.83;;
53666;SDS011;39568;51.026;5.468;2022-12-05T09:11:38;89.55;;;35.53;;
53666;SDS011;39568;51.026;5.468;2022-12-05T09:14:10;77.75;;;31.60;;
53666;SDS011;39568;51.026;5.468;2022-12-05T09:16:37;78.63;;;34.55;;
53666;SDS011;39568;51.026;5.468;2022-12-05T09:19:04;78.43;;;34.92;;
53666;SDS011;39568;51.026;5.468;2022-12-05T09:21:32;63.90;;;30.48;;
53666;SDS011;39568;51.026;5.468;2022-12-05T09:23:59;70.65;;;32.35;;
53666;SDS011;39568;51.026;5.468;2022-12-05T09:26:27;78.97;;;33.10;;
53666;SDS011;39568;51.026;5.468;2022-12-05T09:28:55;72.53;;;31.33;;
53666;SDS011;39568;51.026;5.468;2022-12-05T09:31:22;75.47;;;31.70;;
53666;SDS011;39568;51.026;5.468;2022-12-05T09:33:51;72.15;;;32.20;;
53666;SDS011;39568;51.026;5.468;2022-12-05T09:36:19;69.75;;;31.30;;
53666;SDS011;39568;51.026;5.468;2022-12-05T09:38:49;70.35;;;30.35;;
53666;SDS011;39568;51.026;5.468;2022-12-05T09:41:20;73.55;;;31.85;;
53666;SDS011;39568;51.026;5.468;2022-12-05T09:44:11;65.00;;;27.38;;
53666;SDS011;39568;51.026;5.468;2022-12-05T09:46:45;59.63;;;27.58;;
53666;SDS011;39568;51.026;5.468;2022-12-05T09:49:17;59.40;;;26.30;;
53666;SDS011;39568;51.026;5.468;2022-12-05T09:51:44;59.20;;;28.30;;
53666;SDS011;39568;51.026;5.468;2022-12-05T09:54:15;60.30;;;28.48;;
53666;SDS011;39568;51.026;5.468;2022-12-05T09:56:43;62.08;;;29.10;;
53666;SDS011;39568;51.026;5.468;2022-12-05T09:59:11;65.03;;;27.17;;
53666;SDS011;39568;51.026;5.468;2022-12-05T10:01:42;54.83;;;26.08;;
53666;SDS011;39568;51.026;5.468;2022-12-05T10:04:20;57.22;;;26.02;;
53666;SDS011;39568;51.026;5.468;2022-12-05T10:07:05;54.22;;;24.23;;
53666;SDS011;39568;51.026;5.468;2022-12-05T10:09:47;61.10;;;26.38;;
53666;SDS011;39568;51.026;5.468;2022-12-05T10:12:23;54.75;;;26.13;;
53666;SDS011;39568;51.026;5.468;2022-12-05T10:15:08;54.60;;;27.15;;
53666;SDS011;39568;51.026;5.468;2022-12-05T10:17:40;55.95;;;26.30;;
53666;SDS011;39568;51.026;5.468;2022-12-05T10:20:11;59.15;;;26.65;;
53666;SDS011;39568;51.026;5.468;2022-12-05T10:22:42;59.75;;;27.35;;
53666;SDS011;39568;51.026;5.468;2022-12-05T10:25:13;65.68;;;29.45;;
53666;SDS011;39568;51.026;5.468;2022-12-05T10:27:46;64.90;;;30.85;;
53666;SDS011;39568;51.026;5.468;2022-12-05T10:30:16;65.28;;;32.88;;
53666;SDS011;39568;51.026;5.468;2022-12-05T10:32:48;57.05;;;26.58;;
53666;SDS011;39568;51.026;5.468;2022-12-05T10:35:18;57.45;;;28.77;;
53666;SDS011;39568;51.026;5.468;2022-12-05T10:37:47;59.63;;;27.63;;
53666;SDS011;39568;51.026;5.468;2022-12-05T10:40:16;50.85;;;23.80;;
53666;SDS011;39568;51.026;5.468;2022-12-05T10:42:43;61.00;;;27.92;;
53666;SDS011;39568;51.026;5.468;2022-12-05T10:45:15;58.20;;;24.65;;
53666;SDS011;39568;51.026;5.468;2022-12-05T10:47:44;53.70;;;25.40;;
53666;SDS011;39568;51.026;5.468;2022-12-05T10:50:22;52.13;;;25.13;;
53666;SDS011;39568;51.026;5.468;2022-12-05T10:52:51;50.65;;;26.60;;
53666;SDS011;39568;51.026;5.468;2022-12-05T10:55:20;55.83;;;29.10;;
53666;SDS011;39568;51.026;5.468;2022-12-05T10:57:48;52.47;;;25.80;;
53666;SDS011;39568;51.026;5.468;2022-12-05T11:00:18;53.88;;;26.08;;
53666;SDS011;39568;51.026;5.468;2022-12-05T11:02:49;43.65;;;24.65;;
53666;SDS011;39568;51.026;5.468;2022-12-05T11:05:25;45.90;;;23.48;;
53666;SDS011;39568;51.026;5.468;2022-12-05T11:07:53;42.72;;;22.77;;
53666;SDS011;39568;51.026;5.468;2022-12-05T11:10:32;43.50;;;22.70;;
53666;SDS011;39568;51.026;5.468;2022-12-05T11:13:00;48.53;;;24.83;;
53666;SDS011;39568;51.026;5.468;2022-12-05T11:15:27;48.25;;;24.92;;
53666;SDS011;39568;51.026;5.468;2022-12-05T11:17:57;58.45;;;24.35;;
53666;SDS011;39568;51.026;5.468;2022-12-05T11:20:42;42.83;;;21.73;;
53666;SDS011;39568;51.026;5.468;2022-12-05T11:23:15;46.25;;;21.60;;
53666;SDS011;39568;51.026;5.468;2022-12-05T11:25:53;46.85;;;23.88;;
53666;SDS011;39568;51.026;5.468;2022-12-05T11:28:22;45.17;;;22.73;;
53666;SDS011;39568;51.026;5.468;2022-12-05T11:30:55;39.97;;;22.75;;
53666;SDS011;39568;51.026;5.468;2022-12-05T11:33:23;40.65;;;21.38;;
53666;SDS011;39568;51.026;5.468;2022-12-05T11:35:53;39.33;;;21.92;;
53666;SDS011;39568;51.026;5.468;2022-12-05T11:38:23;43.10;;;21.20;;
53666;SDS011;39568;51.026;5.468;2022-12-05T11:40:54;43.53;;;22.20;;
53666;SDS011;39568;51.026;5.468;2022-12-05T11:43:37;34.55;;;19.27;;
53666;SDS011;39568;51.026;5.468;2022-12-05T11:46:30;41.17;;;20.27;;
53666;SDS011;39568;51.026;5.468;2022-12-05T11:49:11;41.90;;;19.52;;
53666;SDS011;39568;51.026;5.468;2022-12-05T11:51:50;40.58;;;22.52;;
53666;SDS011;39568;51.026;5.468;2022-12-05T11:54:33;38.90;;;20.73;;
53666;SDS011;39568;51.026;5.468;2022-12-05T11:57:20;42.83;;;22.63;;
53666;SDS011;39568;51.026;5.468;2022-12-05T12:00:02;47.10;;;27.60;;
53666;SDS011;39568;51.026;5.468;2022-12-05T12:02:36;58.22;;;28.88;;
53666;SDS011;39568;51.026;5.468;2022-12-05T12:05:20;36.92;;;22.45;;
53666;SDS011;39568;51.026;5.468;2022-12-05T12:07:59;40.70;;;23.98;;
53666;SDS011;39568;51.026;5.468;2022-12-05T12:10:36;35.30;;;20.23;;
53666;SDS011;39568;51.026;5.468;2022-12-05T12:13:20;45.65;;;24.42;;
53666;SDS011;39568;51.026;5.468;2022-12-05T12:15:58;33.25;;;18.45;;
53666;SDS011;39568;51.026;5.468;2022-12-05T12:18:42;36.70;;;21.38;;
53666;SDS011;39568;51.026;5.468;2022-12-05T12:21:17;39.28;;;18.85;;
53666;SDS011;39568;51.026;5.468;2022-12-05T12:23:55;33.78;;;18.75;;
53666;SDS011;39568;51.026;5.468;2022-12-05T12:26:32;30.83;;;16.95;;
53666;SDS011;39568;51.026;5.468;2022-12-05T12:29:12;28.55;;;16.67;;
53666;SDS011;39568;51.026;5.468;2022-12-05T12:31:52;28.60;;;18.13;;
53666;SDS011;39568;51.026;5.468;2022-12-05T12:37:22;34.13;;;18.45;;
53666;SDS011;39568;51.026;5.468;2022-12-05T12:40:00;29.60;;;18.23;;
53666;SDS011;39568;51.026;5.468;2022-12-05T12:42:38;31.42;;;17.52;;
53666;SDS011;39568;51.026;5.468;2022-12-05T12:45:19;31.90;;;19.25;;
53666;SDS011;39568;51.026;5.468;2022-12-05T12:48:07;25.65;;;16.27;;
53666;SDS011;39568;51.026;5.468;2022-12-05T12:50:41;28.63;;;15.70;;
53666;SDS011;39568;51.026;5.468;2022-12-05T12:53:26;25.63;;;14.73;;
53666;SDS011;39568;51.026;5.468;2022-12-05T12:56:10;33.58;;;19.60;;
53666;SDS011;39568;51.026;5.468;2022-12-05T12:58:49;34.88;;;20.10;;
53666;SDS011;39568;51.026;5.468;2022-12-05T13:01:23;32.63;;;18.67;;
53666;SDS011;39568;51.026;5.468;2022-12-05T13:03:56;27.35;;;17.35;;
53666;SDS011;39568;51.026;5.468;2022-12-05T13:06:28;32.03;;;20.55;;
53666;SDS011;39568;51.026;5.468;2022-12-05T13:09:02;26.30;;;16.50;;
53666;SDS011;39568;51.026;5.468;2022-12-05T13:11:34;27.90;;;16.92;;
53666;SDS011;39568;51.026;5.468;2022-12-05T13:14:03;44.10;;;28.55;;
53666;SDS011;39568;51.026;5.468;2022-12-05T13:16:38;29.05;;;17.55;;
53666;SDS011;39568;51.026;5.468;2022-12-05T13:19:22;29.08;;;16.40;;
53666;SDS011;39568;51.026;5.468;2022-12-05T13:21:52;27.95;;;16.27;;
53666;SDS011;39568;51.026;5.468;2022-12-05T13:24:23;27.52;;;17.30;;
53666;SDS011;39568;51.026;5.468;2022-12-05T13:26:52;27.63;;;16.63;;
53666;SDS011;39568;51.026;5.468;2022-12-05T13:29:32;25.25;;;16.92;;
53666;SDS011;39568;51.026;5.468;2022-12-05T13:32:03;32.10;;;16.23;;
53666;SDS011;39568;51.026;5.468;2022-12-05T13:34:40;27.35;;;16.52;;
53666;SDS011;39568;51.026;5.468;2022-12-05T13:37:11;21.00;;;14.02;;
53666;SDS011;39568;51.026;5.468;2022-12-05T13:40:02;23.67;;;15.98;;
53666;SDS011;39568;51.026;5.468;2022-12-05T13:42:48;22.85;;;14.25;;
53666;SDS011;39568;51.026;5.468;2022-12-05T13:45:25;23.10;;;14.90;;
53666;SDS011;39568;51.026;5.468;2022-12-05T13:47:57;29.17;;;16.65;;
53666;SDS011;39568;51.026;5.468;2022-12-05T13:50:40;23.52;;;14.82;;
53666;SDS011;39568;51.026;5.468;2022-12-05T13:53:19;26.02;;;16.60;;
53666;SDS011;39568;51.026;5.468;2022-12-05T13:55:54;22.10;;;14.73;;
53666;SDS011;39568;51.026;5.468;2022-12-05T13:58:36;27.00;;;18.23;;
53666;SDS011;39568;51.026;5.468;2022-12-05T14:01:39;26.77;;;17.77;;
53666;SDS011;39568;51.026;5.468;2022-12-05T14:04:22;31.85;;;20.83;;
53666;SDS011;39568;51.026;5.468;2022-12-05T14:07:05;32.15;;;19.83;;
53666;SDS011;39568;51.026;5.468;2022-12-05T14:09:48;28.70;;;15.25;;
53666;SDS011;39568;51.026;5.468;2022-12-05T14:14:58;27.52;;;17.38;;
53666;SDS011;39568;51.026;5.468;2022-12-05T14:17:26;26.80;;;16.65;;
53666;SDS011;39568;51.026;5.468;2022-12-05T14:20:01;28.55;;;17.75;;
53666;SDS011;39568;51.026;5.468;2022-12-05T14:22:51;29.05;;;17.33;;
53666;SDS011;39568;51.026;5.468;2022-12-05T14:25:37;31.58;;;19.17;;
53666;SDS011;39568;51.026;5.468;2022-12-05T14:28:18;28.38;;;18.10;;
53666;SDS011;39568;51.026;5.468;2022-12-05T14:31:00;24.50;;;16.25;;
53666;SDS011;39568;51.026;5.468;2022-12-05T14:33:39;133.38;;;70.45;;
53666;SDS011;39568;51.026;5.468;2022-12-05T14:36:12;100.55;;;54.63;;
53666;SDS011;39568;51.026;5.468;2022-12-05T14:38:42;40.60;;;24.02;;
53666;SDS011;39568;51.026;5.468;2022-12-05T14:41:10;28.08;;;18.15;;
53666;SDS011;39568;51.026;5.468;2022-12-05T14:43:39;42.58;;;17.52;;
53666;SDS011;39568;51.026;5.468;2022-12-05T14:46:07;31.63;;;20.30;;
53666;SDS011;39568;51.026;5.468;2022-12-05T14:48:41;40.95;;;18.95;;